Ocean Outback — 9V8072 — position and weather

sailwx.info

Track history (hours):
 
Tides and Currents Weather Stations Pressure Air Temp Water Temp Dewpoint Dewpoint Depression Visibility Wind Speed Wind Dir Waves Ship Positions

Ocean Outback

Last reported at 2014-Sep-20 13:33 UTC. Time now 2014-Sep-20 14:02 UTC.
Position N 01°18' E 103°39'.

Length 136 m; draft 7 m.

Type: Ship. MMSI: 563745000.

Date/timePositionNaut miles runAvg speedWind from/ knotsBaromVisibWave heightAir tempDewpointWater temp
2014-Sep-20 13:33N 01°18' E 103°39'0 0.0
2014-Sep-20 12:33N 01°18' E 103°39'0 0.0
2014-Sep-20 11:33N 01°18' E 103°39'0 0.0
2014-Sep-20 10:33N 01°18' E 103°39'0 0.0
2014-Sep-20 09:30N 01°18' E 103°39'0 0.0
2014-Sep-20 08:33N 01°18' E 103°39'0 0.0
2014-Sep-20 07:33N 01°18' E 103°39'0 0.0
2014-Sep-20 06:33N 01°18' E 103°39'0 0.0
2014-Sep-20 05:33N 01°18' E 103°39'0 0.0
2014-Sep-20 04:30N 01°18' E 103°39'0 0.0
2014-Sep-20 03:27N 01°18' E 103°39'0 0.0
2014-Sep-20 02:33N 01°18' E 103°39'0 0.0
2014-Sep-20 01:33N 01°18' E 103°39'0 0.0
2014-Sep-20 00:24N 01°18' E 103°39'0 0.0
2014-Sep-19 23:33N 01°18' E 103°39'0 0.0
2014-Sep-19 22:30N 01°18' E 103°39'0 0.0
2014-Sep-19 21:33N 01°18' E 103°39'0 0.0
2014-Sep-19 20:33N 01°18' E 103°39'0 0.0
2014-Sep-19 19:33N 01°18' E 103°39'0 0.0
2014-Sep-19 18:30N 01°18' E 103°39'0 0.0
2014-Sep-19 17:33N 01°18' E 103°39'0 0.0
2014-Sep-19 16:33N 01°18' E 103°39'0 0.0
2014-Sep-19 15:30N 01°18' E 103°39'0 0.0
2014-Sep-19 14:33N 01°18' E 103°39'0 0.0
2014-Sep-19 13:33N 01°18' E 103°39'0 0.0
2014-Sep-19 12:33N 01°18' E 103°39'0 0.0
2014-Sep-19 11:30N 01°18' E 103°39'0 0.0
2014-Sep-19 10:33N 01°18' E 103°39'0 0.0
2014-Sep-19 09:33N 01°18' E 103°39'0 0.0
2014-Sep-19 08:33N 01°18' E 103°39'0 0.0
2014-Sep-19 07:30N 01°18' E 103°39'0 0.0
2014-Sep-19 06:33N 01°18' E 103°39'0 0.0
2014-Sep-19 05:33N 01°18' E 103°39'0 0.0
2014-Sep-19 04:33N 01°18' E 103°39'0 0.0
2014-Sep-19 03:33N 01°18' E 103°39'0 0.0
2014-Sep-19 02:33N 01°18' E 103°39'0 0.0
2014-Sep-19 01:30N 01°18' E 103°39'0 0.0
2014-Sep-19 00:33N 01°18' E 103°39'0 0.0
2014-Sep-18 23:21N 01°18' E 103°39'0 0.0
2014-Sep-18 22:33N 01°18' E 103°39'0 0.0
2014-Sep-18 21:21N 01°18' E 103°39'0 0.0
2014-Sep-18 20:30N 01°18' E 103°39'0 0.0
2014-Sep-18 19:33N 01°18' E 103°39'0 0.0
2014-Sep-18 18:27N 01°18' E 103°39'0 0.0
2014-Sep-18 17:33N 01°18' E 103°39'0 0.0
2014-Sep-18 16:33N 01°18' E 103°39'0 0.0
2014-Sep-18 15:33N 01°18' E 103°39'0 0.0
2014-Sep-18 14:33N 01°18' E 103°39'0 0.0
2014-Sep-18 13:33N 01°18' E 103°39'0 0.0
2014-Sep-18 12:33N 01°18' E 103°39'0 0.0
2014-Sep-18 11:30N 01°18' E 103°39'0 0.0
2014-Sep-18 10:33N 01°18' E 103°39'0 0.0
2014-Sep-18 09:33N 01°18' E 103°39'0 0.0
2014-Sep-18 08:33N 01°18' E 103°39'0 0.4
2014-Sep-18 07:33N 01°18' E 103°39'4 3.7
2014-Sep-18 06:33N 01°14' E 103°40'0 0.5
2014-Sep-18 05:34N 01°14' E 103°39'0 0.0
2014-Sep-18 04:34N 01°14' E 103°39'0 0.0
2014-Sep-18 03:31N 01°14' E 103°39'0 0.0
2014-Sep-18 02:31N 01°14' E 103°39'0 0.0
2014-Sep-18 01:28N 01°14' E 103°39'0 0.3
2014-Sep-18 00:33N 01°14' E 103°40'4 3.9
2014-Sep-17 23:33N 01°10' E 103°41'7 6.9
2014-Sep-17 22:34N 01°11' E 103°48'10 9.5
2014-Sep-17 21:33N 01°14' E 103°57'11 9.9
2014-Sep-17 20:25N 01°17' E 104°08'  
Track history (hours):
 
Tides and Currents Weather Stations Pressure Air Temp Water Temp Dewpoint Dewpoint Depression Visibility Wind Speed Wind Dir Waves Ship Positions

Ocean Outback

Last reported at 2014-Sep-20 13:33 UTC. Time now 2014-Sep-20 14:02 UTC.
Position N 01°18' E 103°39'.

Length 136 m; draft 7 m.

Type: Ship. MMSI: 563745000.

Date/timePositionNaut miles runAvg speedWind from/ knotsBaromVisibWave heightAir tempDewpointWater temp
2014-Sep-20 13:33N 01°18' E 103°39'0 0.0
2014-Sep-20 12:33N 01°18' E 103°39'0 0.0
2014-Sep-20 11:33N 01°18' E 103°39'0 0.0
2014-Sep-20 10:33N 01°18' E 103°39'0 0.0
2014-Sep-20 09:30N 01°18' E 103°39'0 0.0
2014-Sep-20 08:33N 01°18' E 103°39'0 0.0
2014-Sep-20 07:33N 01°18' E 103°39'0 0.0
2014-Sep-20 06:33N 01°18' E 103°39'0 0.0
2014-Sep-20 05:33N 01°18' E 103°39'0 0.0
2014-Sep-20 04:30N 01°18' E 103°39'0 0.0
2014-Sep-20 03:27N 01°18' E 103°39'0 0.0
2014-Sep-20 02:33N 01°18' E 103°39'0 0.0
2014-Sep-20 01:33N 01°18' E 103°39'0 0.0
2014-Sep-20 00:24N 01°18' E 103°39'0 0.0
2014-Sep-19 23:33N 01°18' E 103°39'0 0.0
2014-Sep-19 22:30N 01°18' E 103°39'0 0.0
2014-Sep-19 21:33N 01°18' E 103°39'0 0.0
2014-Sep-19 20:33N 01°18' E 103°39'0 0.0
2014-Sep-19 19:33N 01°18' E 103°39'0 0.0
2014-Sep-19 18:30N 01°18' E 103°39'0 0.0
2014-Sep-19 17:33N 01°18' E 103°39'0 0.0
2014-Sep-19 16:33N 01°18' E 103°39'0 0.0
2014-Sep-19 15:30N 01°18' E 103°39'0 0.0
2014-Sep-19 14:33N 01°18' E 103°39'0 0.0
2014-Sep-19 13:33N 01°18' E 103°39'0 0.0
2014-Sep-19 12:33N 01°18' E 103°39'0 0.0
2014-Sep-19 11:30N 01°18' E 103°39'0 0.0
2014-Sep-19 10:33N 01°18' E 103°39'0 0.0
2014-Sep-19 09:33N 01°18' E 103°39'0 0.0
2014-Sep-19 08:33N 01°18' E 103°39'0 0.0
2014-Sep-19 07:30N 01°18' E 103°39'0 0.0
2014-Sep-19 06:33N 01°18' E 103°39'0 0.0
2014-Sep-19 05:33N 01°18' E 103°39'0 0.0
2014-Sep-19 04:33N 01°18' E 103°39'0 0.0
2014-Sep-19 03:33N 01°18' E 103°39'0 0.0
2014-Sep-19 02:33N 01°18' E 103°39'0 0.0
2014-Sep-19 01:30N 01°18' E 103°39'0 0.0
2014-Sep-19 00:33N 01°18' E 103°39'0 0.0
2014-Sep-18 23:21N 01°18' E 103°39'0 0.0
2014-Sep-18 22:33N 01°18' E 103°39'0 0.0
2014-Sep-18 21:21N 01°18' E 103°39'0 0.0
2014-Sep-18 20:30N 01°18' E 103°39'0 0.0
2014-Sep-18 19:33N 01°18' E 103°39'0 0.0
2014-Sep-18 18:27N 01°18' E 103°39'0 0.0
2014-Sep-18 17:33N 01°18' E 103°39'0 0.0
2014-Sep-18 16:33N 01°18' E 103°39'0 0.0
2014-Sep-18 15:33N 01°18' E 103°39'0 0.0
2014-Sep-18 14:33N 01°18' E 103°39'0 0.0
2014-Sep-18 13:33N 01°18' E 103°39'0 0.0
2014-Sep-18 12:33N 01°18' E 103°39'0 0.0
2014-Sep-18 11:30N 01°18' E 103°39'0 0.0
2014-Sep-18 10:33N 01°18' E 103°39'0 0.0
2014-Sep-18 09:33N 01°18' E 103°39'0 0.0
2014-Sep-18 08:33N 01°18' E 103°39'0 0.4
2014-Sep-18 07:33N 01°18' E 103°39'4 3.7
2014-Sep-18 06:33N 01°14' E 103°40'0 0.5
2014-Sep-18 05:34N 01°14' E 103°39'0 0.0
2014-Sep-18 04:34N 01°14' E 103°39'0 0.0
2014-Sep-18 03:31N 01°14' E 103°39'0 0.0
2014-Sep-18 02:31N 01°14' E 103°39'0 0.0
2014-Sep-18 01:28N 01°14' E 103°39'0 0.3
2014-Sep-18 00:33N 01°14' E 103°40'4 3.9
2014-Sep-17 23:33N 01°10' E 103°41'7 6.9
2014-Sep-17 22:34N 01°11' E 103°48'10 9.5
2014-Sep-17 21:33N 01°14' E 103°57'11 9.9
2014-Sep-17 20:25N 01°17' E 104°08'  

Dump ship's entire track history